Time;durP1;ratioP1;P1;durP2;ratioP2;P2;SDS_P1;SDS_P2;PMS_P1;PMS_P2;Temp;Humidity;BMP_temperature;BMP_pressure;BME280_temperature;BME280_humidity;BME280_pressure;Samples;Min_cycle;Max_cycle;Signal;HPM_P1;HPM_P2
2022/12/26 00:00:32;;;;;;;2.30;2.00;;;;;;;;;;5052346;28;20237;-79
2022/12/26 00:02:59;;;;;;;4.60;2.90;;;;;;;;;;5052706;28;20205;-79
2022/12/26 00:05:27;;;;;;;2.23;2.13;;;;;;;;;;5055472;28;20252;-79
2022/12/26 00:07:54;;;;;;;4.13;2.70;;;;;;;;;;5068534;28;20698;-79
2022/12/26 00:10:21;;;;;;;3.67;2.60;;;;;;;;;;5071757;28;20225;-79
2022/12/26 00:12:48;;;;;;;5.13;2.73;;;;;;;;;;5072323;28;20209;-79
2022/12/26 00:15:15;;;;;;;3.03;2.80;;;;;;;;;;5069909;28;20190;-80
2022/12/26 00:17:43;;;;;;;4.70;2.73;;;;;;;;;;5052004;28;20199;-79
2022/12/26 00:20:10;;;;;;;4.07;3.00;;;;;;;;;;5052844;28;20222;-80
2022/12/26 00:22:38;;;;;;;3.13;2.27;;;;;;;;;;5072159;28;20197;-79
2022/12/26 00:25:06;;;;;;;7.57;3.30;;;;;;;;;;5071807;28;20206;-80
2022/12/26 00:27:33;;;;;;;4.30;2.93;;;;;;;;;;5072311;28;20555;-79
2022/12/26 00:30:01;;;;;;;3.30;2.37;;;;;;;;;;5071467;28;20240;-79
2022/12/26 00:32:28;;;;;;;3.10;2.73;;;;;;;;;;5071508;28;20233;-79
2022/12/26 00:34:55;;;;;;;3.13;2.83;;;;;;;;;;5072305;28;20209;-79
2022/12/26 00:37:22;;;;;;;4.20;2.60;;;;;;;;;;5071659;28;20236;-79
2022/12/26 00:39:50;;;;;;;3.77;2.77;;;;;;;;;;5071992;28;20251;-79
2022/12/26 00:42:17;;;;;;;4.13;2.87;;;;;;;;;;5071676;28;20233;-79
2022/12/26 00:44:44;;;;;;;3.23;2.87;;;;;;;;;;5055772;28;20228;-79
2022/12/26 00:47:11;;;;;;;8.27;2.80;;;;;;;;;;5070591;28;20236;-79
2022/12/26 00:49:38;;;;;;;2.60;2.40;;;;;;;;;;5071809;28;20236;-79
2022/12/26 00:52:05;;;;;;;3.50;2.70;;;;;;;;;;5071513;28;20232;-79
2022/12/26 00:54:32;;;;;;;3.03;2.60;;;;;;;;;;5072203;28;20201;-79
2022/12/26 00:57:01;;;;;;;4.70;2.77;;;;;;;;;;5071431;28;20248;-79
2022/12/26 00:59:28;;;;;;;3.47;2.60;;;;;;;;;;5072091;28;20217;-79
2022/12/26 01:01:55;;;;;;;4.03;2.93;;;;;;;;;;5071346;28;20251;-79
2022/12/26 01:04:22;;;;;;;3.20;2.70;;;;;;;;;;5072378;28;20231;-79
2022/12/26 01:06:49;;;;;;;4.03;2.80;;;;;;;;;;5071368;28;20649;-79
2022/12/26 01:09:16;;;;;;;5.70;2.33;;;;;;;;;;5071295;28;20221;-79
2022/12/26 01:11:43;;;;;;;4.37;3.17;;;;;;;;;;5071006;28;20233;-79
2022/12/26 01:14:12;;;;;;;6.13;2.30;;;;;;;;;;5071660;28;20585;-79
2022/12/26 01:16:39;;;;;;;3.07;2.77;;;;;;;;;;5071364;28;20739;-79
2022/12/26 01:19:07;;;;;;;6.53;2.83;;;;;;;;;;5071476;28;20229;-79
2022/12/26 01:21:34;;;;;;;2.90;2.70;;;;;;;;;;5071413;28;20240;-79
2022/12/26 01:24:01;;;;;;;2.87;2.67;;;;;;;;;;5071776;28;20227;-79
2022/12/26 01:26:28;;;;;;;3.60;2.33;;;;;;;;;;5071152;28;20229;-79
2022/12/26 01:28:55;;;;;;;3.20;2.53;;;;;;;;;;5073766;28;20228;-79
2022/12/26 01:31:23;;;;;;;3.60;3.30;;;;;;;;;;5075227;28;20232;-79
2022/12/26 01:33:51;;;;;;;3.20;2.90;;;;;;;;;;5075926;28;20216;-79
2022/12/26 01:36:18;;;;;;;4.47;3.07;;;;;;;;;;5075382;28;20237;-79
2022/12/26 01:38:45;;;;;;;3.40;2.60;;;;;;;;;;5075545;28;20229;-79
2022/12/26 01:41:22;;;;;;;2.37;2.17;;;;;;;;;;5075274;28;20244;-79
2022/12/26 01:43:50;;;;;;;5.47;2.40;;;;;;;;;;5075445;28;20197;-79
2022/12/26 01:46:18;;;;;;;3.63;2.93;;;;;;;;;;5074982;28;20240;-79
2022/12/26 01:48:46;;;;;;;3.83;3.07;;;;;;;;;;5075119;28;20228;-79
2022/12/26 01:51:14;;;;;;;2.73;2.40;;;;;;;;;;5075025;28;20551;-79
2022/12/26 01:53:43;;;;;;;3.63;2.70;;;;;;;;;;5075464;28;20589;-79
2022/12/26 01:56:11;;;;;;;3.60;2.77;;;;;;;;;;5074669;28;20621;-79
2022/12/26 01:58:40;;;;;;;2.77;2.57;;;;;;;;;;5074455;28;20229;-79
2022/12/26 02:01:08;;;;;;;3.20;2.90;;;;;;;;;;5062068;28;20298;-79
2022/12/26 02:06:22;;;;;;;3.07;2.80;;;;;;;;;;5063996;28;20347;-79
2022/12/26 02:08:49;;;;;;;3.50;2.80;;;;;;;;;;5057077;28;20233;-79
2022/12/26 02:11:18;;;;;;;3.13;2.77;;;;;;;;;;5054535;28;20238;-79
2022/12/26 02:13:45;;;;;;;3.13;2.37;;;;;;;;;;5054739;28;20209;-79
2022/12/26 02:16:13;;;;;;;2.50;2.30;;;;;;;;;;5054266;28;20291;-79
2022/12/26 02:18:41;;;;;;;3.27;2.60;;;;;;;;;;5054247;28;20275;-79
2022/12/26 02:21:21;;;;;;;3.20;2.90;;;;;;;;;;5054492;28;20241;-79
2022/12/26 02:24:02;;;;;;;2.70;2.50;;;;;;;;;;5054721;28;20178;-79
2022/12/26 02:26:50;;;;;;;3.40;2.63;;;;;;;;;;5054216;28;20233;-79
2022/12/26 02:29:38;;;;;;;2.97;2.63;;;;;;;;;;5049052;28;20233;-79
2022/12/26 02:32:11;;;;;;;6.40;2.77;;;;;;;;;;5029758;28;20225;-79
2022/12/26 02:34:42;;;;;;;3.80;2.80;;;;;;;;;;5074486;28;20666;-79
2022/12/26 02:37:20;;;;;;;2.87;2.67;;;;;;;;;;5056596;28;20706;-79
2022/12/26 02:39:57;;;;;;;8.07;2.90;;;;;;;;;;5052819;28;20732;-79
2022/12/26 02:42:29;;;;;;;2.87;2.60;;;;;;;;;;5053428;28;20245;-79
2022/12/26 02:47:52;;;;;;;2.93;2.60;;;;;;;;;;5053635;28;20244;-79
2022/12/26 03:17:18;;;;;;;3.63;2.37;;;;;;;;;;5073493;28;20251;-79
2022/12/26 03:18:20;;;;;;;6.00;2.60;;;;;;;;;;5073401;28;20201;-79
2022/12/26 03:20:49;;;;;;;3.47;2.67;;;;;;;;;;5073129;28;20240;-79
2022/12/26 03:23:17;;;;;;;5.50;2.80;;;;;;;;;;5074086;28;20201;-79
2022/12/26 03:31:02;;;;;;;4.10;2.80;;;;;;;;;;5055318;28;20305;-78
2022/12/26 03:36:25;;;;;;;4.23;2.57;;;;;;;;;;5052977;28;20252;-79
2022/12/26 03:38:57;;;;;;;3.27;2.57;;;;;;;;;;5052796;28;20252;-78
2022/12/26 04:20:49;;;;;;;4.27;2.30;;;;;;;;;;5068045;28;20232;-78
2022/12/26 04:45:37;;;;;;;1.73;1.57;;;;;;;;;;5052810;28;20237;-79
2022/12/26 04:50:50;;;;;;;3.80;2.60;;;;;;;;;;5035375;28;20244;-79
2022/12/26 04:53:17;;;;;;;2.33;2.17;;;;;;;;;;5058154;28;20237;-79
2022/12/26 04:55:44;;;;;;;3.13;2.53;;;;;;;;;;5055095;28;20713;-78
2022/12/26 04:58:13;;;;;;;5.13;3.20;;;;;;;;;;5066407;28;20302;-78
2022/12/26 05:00:40;;;;;;;2.60;2.40;;;;;;;;;;5070834;28;20279;-79
2022/12/26 05:11:23;;;;;;;3.60;2.70;;;;;;;;;;5058430;28;20228;-79
2022/12/26 05:13:51;;;;;;;3.07;2.70;;;;;;;;;;5071562;28;20205;-78
2022/12/26 05:30:05;;;;;;;2.83;2.53;;;;;;;;;;5070735;28;20316;-79
2022/12/26 05:35:18;;;;;;;4.47;2.40;;;;;;;;;;5051033;28;20217;-79
2022/12/26 05:37:45;;;;;;;4.60;2.53;;;;;;;;;;5051142;28;20210;-78
2022/12/26 05:40:12;;;;;;;2.37;2.17;;;;;;;;;;5051232;28;20315;-79
2022/12/26 05:42:39;;;;;;;2.30;2.20;;;;;;;;;;5051311;28;20674;-78
2022/12/26 05:45:08;;;;;;;4.00;2.57;;;;;;;;;;5050814;28;20210;-79
2022/12/26 05:47:35;;;;;;;3.37;2.47;;;;;;;;;;5051219;28;20221;-78
2022/12/26 05:50:02;;;;;;;2.93;2.63;;;;;;;;;;5064987;28;20241;-78
2022/12/26 05:52:29;;;;;;;3.37;2.33;;;;;;;;;;5051045;28;20225;-78
2022/12/26 05:54:56;;;;;;;2.40;2.20;;;;;;;;;;5051221;28;20222;-78
2022/12/26 05:57:23;;;;;;;3.33;2.57;;;;;;;;;;5051005;28;20230;-78
2022/12/26 05:59:50;;;;;;;3.97;2.30;;;;;;;;;;5053701;28;20593;-78
2022/12/26 06:02:18;;;;;;;3.33;2.70;;;;;;;;;;5054493;28;20232;-78
2022/12/26 06:04:45;;;;;;;2.57;2.27;;;;;;;;;;5071064;28;20213;-78
2022/12/26 06:07:12;;;;;;;2.73;2.20;;;;;;;;;;5060091;28;20256;-78
2022/12/26 06:09:39;;;;;;;1.50;1.40;;;;;;;;;;5053058;28;20218;-78
2022/12/26 06:12:06;;;;;;;2.50;2.30;;;;;;;;;;5066473;28;20230;-77
2022/12/26 06:14:33;;;;;;;4.13;2.50;;;;;;;;;;5063656;28;20205;-77
2022/12/26 06:17:00;;;;;;;3.03;2.07;;;;;;;;;;5066613;28;20225;-77
2022/12/26 06:19:29;;;;;;;3.77;2.70;;;;;;;;;;5054490;28;20709;-77
2022/12/26 06:21:56;;;;;;;3.60;3.03;;;;;;;;;;5062774;28;20229;-77
2022/12/26 06:24:23;;;;;;;6.80;2.40;;;;;;;;;;5074741;28;20209;-77
2022/12/26 06:26:50;;;;;;;2.27;2.07;;;;;;;;;;5073923;28;20233;-77
2022/12/26 06:29:17;;;;;;;3.00;2.30;;;;;;;;;;5073857;28;20256;-77
2022/12/26 06:31:44;;;;;;;4.47;2.40;;;;;;;;;;5072907;28;20743;-77
2022/12/26 06:34:11;;;;;;;4.30;2.27;;;;;;;;;;5067064;28;20256;-77
2022/12/26 06:36:40;;;;;;;2.50;1.97;;;;;;;;;;5052909;28;20766;-77
2022/12/26 06:39:07;;;;;;;3.30;1.87;;;;;;;;;;5052815;28;20226;-77
2022/12/26 06:41:34;;;;;;;3.40;2.33;;;;;;;;;;5062849;28;20237;-77
2022/12/26 06:44:01;;;;;;;2.93;2.40;;;;;;;;;;5063267;28;20198;-78
2022/12/26 06:46:28;;;;;;;4.13;2.43;;;;;;;;;;5071151;28;20237;-77
2022/12/26 06:48:55;;;;;;;2.77;2.40;;;;;;;;;;5052731;28;20222;-78
2022/12/26 06:51:23;;;;;;;5.47;2.63;;;;;;;;;;5053082;28;20240;-80
2022/12/26 06:53:53;;;;;;;4.80;2.70;;;;;;;;;;5056365;28;20578;-80
2022/12/26 06:56:21;;;;;;;4.07;2.20;;;;;;;;;;5067085;28;20236;-80
2022/12/26 06:58:48;;;;;;;2.77;2.20;;;;;;;;;;5052418;28;20621;-79
2022/12/26 07:01:16;;;;;;;3.60;2.73;;;;;;;;;;5057054;28;20226;-78
2022/12/26 07:03:43;;;;;;;5.80;3.30;;;;;;;;;;5052665;28;20673;-78
2022/12/26 07:06:13;;;;;;;5.97;2.20;;;;;;;;;;5052233;28;20854;-78
2022/12/26 07:08:40;;;;;;;5.63;2.60;;;;;;;;;;5056538;28;20255;-78
2022/12/26 07:11:14;;;;;;;4.43;2.70;;;;;;;;;;5072266;28;20855;-78
2022/12/26 07:13:41;;;;;;;2.97;2.77;;;;;;;;;;5072108;28;20213;-78
2022/12/26 07:16:08;;;;;;;6.50;3.07;;;;;;;;;;5057333;28;20246;-78
2022/12/26 07:18:35;;;;;;;5.03;3.50;;;;;;;;;;5072381;28;20209;-78
2022/12/26 07:21:04;;;;;;;3.30;3.00;;;;;;;;;;5062505;28;20234;-80
2022/12/26 07:23:31;;;;;;;4.13;2.67;;;;;;;;;;5052496;28;20209;-79
2022/12/26 07:25:58;;;;;;;3.00;2.60;;;;;;;;;;5051308;28;20308;-79
2022/12/26 07:28:27;;;;;;;5.63;2.80;;;;;;;;;;5052159;28;20267;-78
2022/12/26 07:30:54;;;;;;;3.10;2.60;;;;;;;;;;5009323;28;1243235;-78
2022/12/26 07:33:21;;;;;;;3.50;2.90;;;;;;;;;;5063767;28;20229;-78
2022/12/26 07:35:48;;;;;;;3.20;2.80;;;;;;;;;;5072681;28;20306;-78
2022/12/26 07:38:15;;;;;;;3.80;3.00;;;;;;;;;;5073043;28;20201;-78
2022/12/26 07:40:42;;;;;;;2.87;2.67;;;;;;;;;;5072707;28;20233;-80
2022/12/26 07:43:10;;;;;;;3.30;2.70;;;;;;;;;;5073072;28;20661;-80
2022/12/26 07:45:38;;;;;;;4.57;2.50;;;;;;;;;;5072893;28;20597;-80
2022/12/26 07:48:05;;;;;;;4.83;3.20;;;;;;;;;;5072624;28;20550;-80
2022/12/26 07:50:32;;;;;;;4.10;3.10;;;;;;;;;;5072435;28;20236;-80
2022/12/26 07:52:59;;;;;;;2.70;2.50;;;;;;;;;;5072825;28;20267;-79
2022/12/26 07:55:26;;;;;;;5.10;2.97;;;;;;;;;;5072563;28;20237;-81
2022/12/26 07:57:53;;;;;;;4.60;2.87;;;;;;;;;;5072687;28;20213;-81
2022/12/26 08:00:20;;;;;;;3.03;2.17;;;;;;;;;;5072378;28;20229;-80
2022/12/26 08:02:49;;;;;;;2.53;2.23;;;;;;;;;;5072737;28;20251;-80
2022/12/26 08:05:17;;;;;;;2.40;2.17;;;;;;;;;;5072456;28;20290;-80
2022/12/26 08:07:44;;;;;;;2.93;2.53;;;;;;;;;;5072645;28;20212;-80
2022/12/26 08:10:11;;;;;;;4.27;2.33;;;;;;;;;;5059037;28;20767;-81
2022/12/26 08:12:38;;;;;;;4.40;2.90;;;;;;;;;;5052988;28;20255;-80
2022/12/26 08:15:05;;;;;;;4.27;2.50;;;;;;;;;;5051950;28;20217;-82
2022/12/26 08:17:32;;;;;;;3.03;2.83;;;;;;;;;;5061474;28;20550;-81
2022/12/26 08:20:01;;;;;;;2.80;2.60;;;;;;;;;;5065617;28;20225;-80
2022/12/26 08:22:28;;;;;;;3.80;2.70;;;;;;;;;;5072740;28;20225;-80
2022/12/26 08:24:55;;;;;;;2.70;2.50;;;;;;;;;;5071856;28;20665;-80
2022/12/26 08:27:22;;;;;;;3.33;3.00;;;;;;;;;;5051878;28;20233;-81
2022/12/26 08:29:49;;;;;;;3.80;3.30;;;;;;;;;;5051849;28;20236;-80
2022/12/26 08:32:16;;;;;;;3.63;3.13;;;;;;;;;;5051886;28;20360;-80
2022/12/26 08:34:43;;;;;;;2.47;2.27;;;;;;;;;;5052142;28;20285;-80
2022/12/26 08:37:11;;;;;;;3.20;2.90;;;;;;;;;;5051665;28;20241;-80
2022/12/26 08:39:38;;;;;;;4.17;3.00;;;;;;;;;;5052110;28;20226;-81
2022/12/26 08:42:05;;;;;;;3.43;3.10;;;;;;;;;;5051706;28;20237;-82
2022/12/26 08:44:32;;;;;;;3.97;2.97;;;;;;;;;;5052007;28;20720;-82
2022/12/26 08:46:59;;;;;;;5.07;2.53;;;;;;;;;;5051361;28;20291;-81
2022/12/26 08:49:26;;;;;;;2.60;2.33;;;;;;;;;;5051693;28;20245;-80
2022/12/26 08:51:53;;;;;;;3.00;2.80;;;;;;;;;;5051107;28;20229;-81
2022/12/26 08:54:22;;;;;;;3.83;2.87;;;;;;;;;;5052636;28;20206;-80
2022/12/26 08:56:49;;;;;;;4.90;3.10;;;;;;;;;;5052044;28;20230;-80
2022/12/26 08:59:16;;;;;;;2.57;2.37;;;;;;;;;;5052173;28;20597;-81
2022/12/26 09:01:43;;;;;;;2.63;2.43;;;;;;;;;;5052725;28;20241;-80
2022/12/26 09:04:10;;;;;;;2.80;2.60;;;;;;;;;;5072453;28;20204;-80
2022/12/26 09:06:38;;;;;;;2.93;2.50;;;;;;;;;;5072203;28;20240;-80
2022/12/26 09:09:06;;;;;;;4.40;2.70;;;;;;;;;;5073067;28;20229;-81
2022/12/26 09:11:35;;;;;;;3.37;2.80;;;;;;;;;;5073461;28;20267;-81
2022/12/26 09:14:02;;;;;;;2.73;2.13;;;;;;;;;;5072454;28;20205;-80
2022/12/26 09:16:30;;;;;;;2.57;2.37;;;;;;;;;;5072043;28;20240;-80
2022/12/26 09:18:58;;;;;;;2.63;2.43;;;;;;;;;;5071213;28;20229;-80
2022/12/26 09:21:25;;;;;;;2.70;2.50;;;;;;;;;;5071697;28;20229;-80
2022/12/26 09:23:56;;;;;;;3.30;2.80;;;;;;;;;;5071872;28;20209;-79
2022/12/26 09:26:24;;;;;;;2.57;2.37;;;;;;;;;;5071056;28;20744;-79
2022/12/26 09:28:52;;;;;;;2.47;2.20;;;;;;;;;;5059313;28;20225;-77
2022/12/26 09:31:20;;;;;;;4.47;2.93;;;;;;;;;;5082763;22;20237;-77
2022/12/26 09:33:48;;;;;;;3.10;2.80;;;;;;;;;;5051513;28;20202;-77
2022/12/26 09:36:15;;;;;;;5.53;2.80;;;;;;;;;;5050450;28;20222;-77
2022/12/26 09:38:43;;;;;;;2.17;2.07;;;;;;;;;;5050868;28;20213;-77
2022/12/26 09:41:16;;;;;;;3.20;2.77;;;;;;;;;;5037422;28;20254;-77
2022/12/26 09:43:51;;;;;;;2.67;2.50;;;;;;;;;;5032603;28;20210;-77
2022/12/26 09:46:25;;;;;;;3.37;2.33;;;;;;;;;;5031103;28;20230;-76
2022/12/26 09:48:55;;;;;;;2.50;2.30;;;;;;;;;;5049482;28;20190;-77
2022/12/26 09:51:22;;;;;;;3.33;2.10;;;;;;;;;;5065997;28;20635;-77
2022/12/26 09:53:49;;;;;;;1.90;1.80;;;;;;;;;;5075313;28;20213;-77
2022/12/26 09:56:18;;;;;;;2.13;2.03;;;;;;;;;;5054689;28;20232;-76
2022/12/26 09:58:47;;;;;;;2.90;2.57;;;;;;;;;;5054800;28;20205;-76
2022/12/26 10:01:15;;;;;;;2.90;2.60;;;;;;;;;;5054629;28;20615;-77
2022/12/26 10:03:44;;;;;;;2.90;2.60;;;;;;;;;;5055147;28;20206;-76
2022/12/26 10:06:14;;;;;;;3.50;2.43;;;;;;;;;;5074293;28;20234;-76
2022/12/26 10:08:46;;;;;;;2.17;2.07;;;;;;;;;;5074763;28;20213;-77
2022/12/26 10:11:16;;;;;;;2.90;2.60;;;;;;;;;;5074613;28;20290;-77
2022/12/26 10:13:47;;;;;;;2.10;1.73;;;;;;;;;;5074898;28;20205;-77
2022/12/26 10:16:16;;;;;;;2.30;2.20;;;;;;;;;;5063847;28;20245;-77
2022/12/26 10:19:00;;;;;;;3.07;2.20;;;;;;;;;;5054431;28;20218;-78
2022/12/26 10:21:34;;;;;;;2.40;2.20;;;;;;;;;;5054379;28;20233;-76
2022/12/26 10:24:02;;;;;;;2.30;1.83;;;;;;;;;;5053754;28;20214;-77
2022/12/26 10:26:30;;;;;;;2.23;2.03;;;;;;;;;;5066418;28;20616;-76
2022/12/26 10:29:00;;;;;;;1.60;1.50;;;;;;;;;;5074414;28;20212;-77
2022/12/26 10:31:30;;;;;;;2.53;2.20;;;;;;;;;;5073898;28;20320;-77
2022/12/26 10:34:00;;;;;;;2.40;1.80;;;;;;;;;;5074426;28;20209;-76
2022/12/26 10:36:31;;;;;;;2.73;2.13;;;;;;;;;;5070327;28;20233;-76
2022/12/26 10:39:00;;;;;;;1.90;1.80;;;;;;;;;;5074353;28;20209;-76
2022/12/26 10:41:28;;;;;;;2.30;2.10;;;;;;;;;;5062291;28;20245;-76
2022/12/26 10:43:55;;;;;;;2.53;2.33;;;;;;;;;;5053745;28;20206;-76
2022/12/26 10:46:33;;;;;;;2.33;2.20;;;;;;;;;;5053746;28;20749;-76
2022/12/26 10:49:01;;;;;;;2.37;2.17;;;;;;;;;;5053976;28;20220;-76
2022/12/26 10:51:28;;;;;;;2.43;2.23;;;;;;;;;;5042503;28;20231;-76
2022/12/26 10:53:56;;;;;;;1.83;1.73;;;;;;;;;;5034371;28;20217;-77
2022/12/26 10:56:24;;;;;;;2.63;2.10;;;;;;;;;;5033857;28;20288;-76
2022/12/26 10:58:59;;;;;;;2.17;2.00;;;;;;;;;;5033624;28;20206;-77
2022/12/26 11:01:33;;;;;;;3.77;2.20;;;;;;;;;;5032536;28;20238;-77
2022/12/26 11:04:02;;;;;;;3.50;3.20;;;;;;;;;;5034407;28;20218;-77
2022/12/26 11:06:32;;;;;;;3.73;3.00;;;;;;;;;;5033523;28;20231;-77
2022/12/26 11:08:59;;;;;;;2.40;2.30;;;;;;;;;;5047926;28;20298;-77
2022/12/26 11:11:44;;;;;;;4.10;3.00;;;;;;;;;;5047262;28;20702;-78
2022/12/26 11:14:22;;;;;;;5.43;2.97;;;;;;;;;;5042216;28;20202;-77
2022/12/26 11:16:49;;;;;;;3.10;2.73;;;;;;;;;;5041760;28;20234;-77
2022/12/26 11:19:27;;;;;;;4.33;3.20;;;;;;;;;;5033707;28;20663;-77
2022/12/26 11:21:54;;;;;;;6.47;3.70;;;;;;;;;;5033179;28;20234;-77
2022/12/26 11:24:21;;;;;;;4.27;2.90;;;;;;;;;;5048149;28;20252;-77
2022/12/26 11:26:49;;;;;;;3.07;2.77;;;;;;;;;;5053138;28;20238;-77
2022/12/26 11:29:17;;;;;;;3.23;2.93;;;;;;;;;;5045838;28;20199;-77
2022/12/26 11:31:50;;;;;;;3.10;2.80;;;;;;;;;;5063339;28;20237;-77
2022/12/26 11:34:20;;;;;;;4.70;2.97;;;;;;;;;;5073337;28;20284;-77
2022/12/26 11:36:50;;;;;;;3.07;2.77;;;;;;;;;;5071718;28;20233;-77
2022/12/26 11:39:21;;;;;;;5.83;2.73;;;;;;;;;;5057460;28;20197;-77
2022/12/26 11:41:48;;;;;;;2.70;2.50;;;;;;;;;;5072326;28;20252;-77
2022/12/26 11:44:20;;;;;;;2.73;2.53;;;;;;;;;;5073370;28;20213;-77
2022/12/26 11:46:50;;;;;;;2.80;2.10;;;;;;;;;;5072470;28;20275;-77
2022/12/26 11:49:22;;;;;;;2.20;2.10;;;;;;;;;;5072728;28;20684;-77
2022/12/26 11:51:52;;;;;;;3.57;2.23;;;;;;;;;;5072015;28;20237;-77
2022/12/26 11:54:21;;;;;;;5.17;2.67;;;;;;;;;;5073139;28;20202;-77
2022/12/26 11:56:48;;;;;;;3.27;2.50;;;;;;;;;;5057864;28;20229;-77
2022/12/26 11:59:18;;;;;;;2.50;2.30;;;;;;;;;;5052514;28;20269;-77
2022/12/26 12:01:45;;;;;;;2.70;2.50;;;;;;;;;;5043367;28;20230;-77
2022/12/26 12:04:12;;;;;;;2.20;2.00;;;;;;;;;;5033100;28;20218;-76
2022/12/26 12:06:48;;;;;;;2.20;2.10;;;;;;;;;;5032351;28;20242;-77
2022/12/26 12:09:18;;;;;;;2.83;2.17;;;;;;;;;;5045939;28;20237;-76
2022/12/26 12:11:50;;;;;;;2.30;2.10;;;;;;;;;;5050263;28;20241;-76
2022/12/26 12:14:23;;;;;;;2.87;2.10;;;;;;;;;;5052674;28;20205;-77
2022/12/26 12:16:54;;;;;;;2.27;2.07;;;;;;;;;;5052235;28;20295;-77
2022/12/26 12:19:27;;;;;;;2.30;2.10;;;;;;;;;;5047710;28;20204;-76
2022/12/26 12:22:03;;;;;;;2.53;2.33;;;;;;;;;;5051955;28;20236;-77
2022/12/26 12:24:37;;;;;;;2.40;2.10;;;;;;;;;;5047237;28;20194;-77
2022/12/26 12:27:10;;;;;;;2.30;2.13;;;;;;;;;;5068651;28;20262;-77
2022/12/26 12:29:48;;;;;;;2.97;2.40;;;;;;;;;;5071500;28;20220;-77
2022/12/26 12:32:18;;;;;;;2.13;1.63;;;;;;;;;;5071726;28;20243;-77
2022/12/26 12:35:03;;;;;;;2.27;2.13;;;;;;;;;;5072118;28;20240;-77
2022/12/26 12:37:34;;;;;;;4.07;2.30;;;;;;;;;;5071792;28;20294;-77
2022/12/26 12:40:05;;;;;;;3.13;2.00;;;;;;;;;;5071465;28;20221;-77
2022/12/26 12:42:38;;;;;;;1.80;1.70;;;;;;;;;;5052008;28;20218;-77
2022/12/26 12:45:25;;;;;;;3.23;2.00;;;;;;;;;;5051574;28;20217;-78
2022/12/26 12:47:57;;;;;;;1.90;1.80;;;;;;;;;;5051718;28;20210;-77
2022/12/26 12:50:29;;;;;;;2.63;2.40;;;;;;;;;;5054854;28;20245;-77
2022/12/26 12:53:06;;;;;;;2.27;1.97;;;;;;;;;;5071904;28;20229;-77
2022/12/26 12:55:43;;;;;;;1.60;1.50;;;;;;;;;;5071730;28;20228;-77
2022/12/26 12:58:14;;;;;;;2.80;2.10;;;;;;;;;;5071409;28;20232;-77
2022/12/26 13:00:42;;;;;;;1.90;1.80;;;;;;;;;;5071216;28;20237;-77
2022/12/26 13:03:10;;;;;;;1.90;1.80;;;;;;;;;;5071863;28;20197;-77
2022/12/26 13:05:42;;;;;;;2.43;2.07;;;;;;;;;;5071080;28;20229;-77
2022/12/26 13:08:13;;;;;;;1.90;1.80;;;;;;;;;;5071215;28;20244;-78
2022/12/26 13:10:46;;;;;;;2.30;1.90;;;;;;;;;;5071296;28;20236;-78
2022/12/26 13:13:16;;;;;;;2.00;1.90;;;;;;;;;;5071866;28;20205;-77
2022/12/26 13:15:45;;;;;;;2.17;1.97;;;;;;;;;;5071125;28;20233;-78
2022/12/26 13:18:14;;;;;;;2.20;2.00;;;;;;;;;;5071521;28;20204;-77
2022/12/26 13:20:43;;;;;;;1.90;1.80;;;;;;;;;;5071084;28;20267;-78
2022/12/26 13:26:06;;;;;;;3.30;2.00;;;;;;;;;;5071168;28;20239;-78
2022/12/26 13:28:36;;;;;;;2.03;1.90;;;;;;;;;;5070806;28;20696;-77
2022/12/26 13:31:03;;;;;;;2.23;2.07;;;;;;;;;;5070833;28;20241;-77
2022/12/26 13:33:31;;;;;;;2.13;2.00;;;;;;;;;;5071442;28;20209;-77
2022/12/26 13:35:59;;;;;;;3.50;2.00;;;;;;;;;;5063004;28;20248;-77
2022/12/26 13:38:44;;;;;;;2.43;2.10;;;;;;;;;;5037393;28;20301;-78
2022/12/26 13:44:01;;;;;;;2.23;2.03;;;;;;;;;;5030352;28;20202;-78
2022/12/26 13:46:35;;;;;;;3.67;2.03;;;;;;;;;;5031050;28;20234;-77
2022/12/26 13:49:02;;;;;;;2.00;1.80;;;;;;;;;;5049439;28;20251;-77
2022/12/26 13:51:48;;;;;;;2.83;1.90;;;;;;;;;;5050676;28;20241;-77
2022/12/26 13:54:16;;;;;;;2.57;1.63;;;;;;;;;;5051543;28;20210;-77
2022/12/26 13:57:01;;;;;;;1.90;1.80;;;;;;;;;;5050459;28;20229;-77
2022/12/26 13:59:32;;;;;;;3.53;1.80;;;;;;;;;;5034639;28;20206;-77
2022/12/26 14:02:10;;;;;;;2.67;1.83;;;;;;;;;;5050707;28;20233;-77
2022/12/26 14:04:41;;;;;;;2.37;1.90;;;;;;;;;;5051087;28;20198;-77
2022/12/26 14:07:19;;;;;;;1.80;1.70;;;;;;;;;;5067301;28;20237;-77
2022/12/26 14:09:58;;;;;;;2.90;1.90;;;;;;;;;;5070380;28;20721;-78
2022/12/26 14:12:39;;;;;;;2.33;1.87;;;;;;;;;;5050879;28;20315;-77
2022/12/26 14:15:16;;;;;;;2.20;2.00;;;;;;;;;;5050741;28;20201;-78
2022/12/26 14:17:48;;;;;;;2.67;1.80;;;;;;;;;;5061261;28;20235;-77
2022/12/26 14:20:21;;;;;;;2.50;2.30;;;;;;;;;;5070556;28;20248;-77
2022/12/26 14:22:56;;;;;;;1.97;1.87;;;;;;;;;;5070965;28;20212;-77
2022/12/26 14:25:25;;;;;;;1.83;1.73;;;;;;;;;;5070868;28;20244;-77
2022/12/26 14:27:55;;;;;;;2.37;2.00;;;;;;;;;;5070488;28;20669;-77
2022/12/26 14:30:26;;;;;;;1.80;1.60;;;;;;;;;;5070317;28;20312;-77
2022/12/26 14:33:03;;;;;;;2.63;2.10;;;;;;;;;;5070905;28;20221;-77
2022/12/26 14:35:32;;;;;;;2.30;2.10;;;;;;;;;;5072329;28;20232;-77
2022/12/26 14:38:05;;;;;;;2.63;1.90;;;;;;;;;;5074319;28;20258;-78
2022/12/26 14:40:35;;;;;;;1.67;1.57;;;;;;;;;;5073961;28;20237;-78
2022/12/26 14:43:13;;;;;;;2.10;1.77;;;;;;;;;;5074336;28;20255;-77
2022/12/26 14:45:43;;;;;;;2.73;2.10;;;;;;;;;;5073744;28;20828;-77
2022/12/26 14:48:28;;;;;;;2.73;1.90;;;;;;;;;;5074113;28;20220;-78
2022/12/26 14:50:56;;;;;;;2.83;2.10;;;;;;;;;;5073494;28;20246;-78
2022/12/26 14:53:33;;;;;;;1.33;1.27;;;;;;;;;;5074298;28;20232;-77
2022/12/26 14:56:01;;;;;;;2.23;1.50;;;;;;;;;;5073605;28;20233;-77
2022/12/26 14:58:40;;;;;;;1.93;1.83;;;;;;;;;;5073664;28;20205;-77
2022/12/26 15:01:26;;;;;;;3.33;1.70;;;;;;;;;;5073389;28;20244;-77
2022/12/26 15:03:57;;;;;;;2.30;1.60;;;;;;;;;;5073874;28;20212;-77
2022/12/26 15:06:36;;;;;;;1.53;1.50;;;;;;;;;;5073649;28;20236;-77
2022/12/26 15:09:11;;;;;;;1.50;1.40;;;;;;;;;;5073692;28;20201;-78
2022/12/26 15:11:49;;;;;;;2.43;2.03;;;;;;;;;;5073157;28;20311;-77
2022/12/26 15:14:34;;;;;;;2.47;1.60;;;;;;;;;;5073952;28;20208;-76
2022/12/26 15:17:08;;;;;;;1.73;1.63;;;;;;;;;;5073114;28;20237;-77
2022/12/26 15:22:40;;;;;;;3.37;1.90;;;;;;;;;;5088712;27;21130;-76
2022/12/26 15:25:20;;;;;;;1.80;1.70;;;;;;;;;;5068312;28;20689;-77
2022/12/26 15:28:00;;;;;;;1.30;1.30;;;;;;;;;;5068583;28;20693;-76
2022/12/26 15:30:34;;;;;;;2.20;1.60;;;;;;;;;;5069042;28;20229;-77
2022/12/26 15:33:02;;;;;;;1.80;1.60;;;;;;;;;;5068880;28;20210;-77
2022/12/26 15:35:33;;;;;;;1.30;1.23;;;;;;;;;;5068433;28;20286;-77
2022/12/26 15:38:17;;;;;;;2.07;1.70;;;;;;;;;;5068426;28;20258;-77
2022/12/26 15:40:45;;;;;;;1.47;1.37;;;;;;;;;;5067973;28;20713;-77
2022/12/26 15:43:22;;;;;;;2.33;1.40;;;;;;;;;;5068432;28;20208;-76
2022/12/26 15:45:51;;;;;;;2.03;1.90;;;;;;;;;;5067976;28;20237;-76
2022/12/26 15:48:28;;;;;;;3.00;2.30;;;;;;;;;;5068145;28;20267;-76
2022/12/26 15:50:58;;;;;;;3.33;1.80;;;;;;;;;;5067962;28;20236;-76
2022/12/26 15:53:33;;;;;;;3.10;2.13;;;;;;;;;;5068511;28;20210;-77
2022/12/26 15:56:08;;;;;;;2.33;2.13;;;;;;;;;;5067634;28;20244;-78
2022/12/26 15:58:41;;;;;;;2.13;1.93;;;;;;;;;;5067905;28;20227;-77
2022/12/26 16:01:10;;;;;;;1.90;1.80;;;;;;;;;;5067703;28;20241;-77
2022/12/26 16:03:40;;;;;;;1.70;1.60;;;;;;;;;;5085438;28;20208;-77
2022/12/26 16:06:20;;;;;;;1.83;1.73;;;;;;;;;;5088140;28;20311;-77
2022/12/26 16:08:58;;;;;;;6.17;2.00;;;;;;;;;;5087997;28;20197;-77
2022/12/26 16:11:26;;;;;;;2.33;2.13;;;;;;;;;;5085604;28;20236;-77
2022/12/26 16:13:58;;;;;;;2.43;2.00;;;;;;;;;;5067979;28;20201;-78
2022/12/26 16:16:27;;;;;;;1.50;1.40;;;;;;;;;;5079485;28;20236;-78
2022/12/26 16:18:54;;;;;;;2.03;1.80;;;;;;;;;;5088036;28;20212;-78
2022/12/26 16:24:10;;;;;;;1.40;1.30;;;;;;;;;;5087988;28;20196;-78
2022/12/26 16:26:41;;;;;;;1.97;1.60;;;;;;;;;;5087666;28;20225;-78
2022/12/26 16:29:08;;;;;;;3.03;1.93;;;;;;;;;;5087727;28;20227;-77
2022/12/26 16:31:35;;;;;;;2.03;1.37;;;;;;;;;;5086915;28;20309;-79
2022/12/26 16:34:02;;;;;;;1.83;1.67;;;;;;;;;;5073810;28;20201;-79
2022/12/26 16:36:30;;;;;;;3.97;1.90;;;;;;;;;;5073805;28;20607;-78
2022/12/26 16:38:58;;;;;;;3.13;2.17;;;;;;;;;;5073843;28;20197;-78
2022/12/26 16:41:27;;;;;;;2.43;1.60;;;;;;;;;;5073853;28;20236;-79
2022/12/26 16:43:55;;;;;;;1.30;1.20;;;;;;;;;;5074072;28;20202;-79
2022/12/26 16:46:25;;;;;;;1.47;1.37;;;;;;;;;;5073891;28;20636;-78
2022/12/26 16:48:53;;;;;;;1.43;1.33;;;;;;;;;;5073752;28;20252;-78
2022/12/26 16:51:33;;;;;;;1.57;1.40;;;;;;;;;;5073621;28;20335;-79
2022/12/26 16:54:15;;;;;;;1.80;1.40;;;;;;;;;;5074099;28;20212;-79
2022/12/26 16:56:43;;;;;;;1.57;1.20;;;;;;;;;;5073589;28;20240;-79
2022/12/26 16:59:13;;;;;;;3.23;1.50;;;;;;;;;;5073842;28;20201;-79
2022/12/26 17:01:40;;;;;;;2.10;1.93;;;;;;;;;;5073414;28;20237;-78
2022/12/26 17:04:16;;;;;;;2.00;1.90;;;;;;;;;;5073020;28;20202;-78
2022/12/26 17:06:47;;;;;;;1.83;1.30;;;;;;;;;;5053147;28;20229;-78
2022/12/26 17:09:15;;;;;;;1.50;1.40;;;;;;;;;;5053553;28;20206;-78
2022/12/26 17:11:50;;;;;;;2.80;1.57;;;;;;;;;;5070574;28;20228;-78
2022/12/26 17:14:19;;;;;;;1.50;1.40;;;;;;;;;;5073876;28;20225;-78
2022/12/26 17:16:46;;;;;;;2.23;1.40;;;;;;;;;;5073155;28;20233;-78
2022/12/26 17:19:18;;;;;;;2.93;2.33;;;;;;;;;;5073450;28;20212;-78